KBIS

Bismarck Municipal Airport

Bismarck, North Dakota, USA
KBIS 151455Z 1515/1612 13007KT P6SM SCT250 WS015/25035KT FM151700 21009KT P6SM BKN250 WS020/30040KT FM151900 25012KT P6SM SCT120 BKN250 WS020/30040KT FM152100 27010G17KT P6SM FEW250 WS020/30040KT FM160400 29008KT P6SM SKC
Issued Valid From Valid To
Dec-15 @ 14:55 UTC
(2 hours ago)
Dec-15 @ 15:00 UTC
(2 hours ago)
Dec-16 @ 12:00 UTC
(in 19 hours)
Dec-15 @ 15:00 to Dec-15 @ 17:00
KBIS 151455Z 1515/1612 13007KT P6SM SCT250 WS015/25035KT
Wind Visibility Clouds
130° at 7 knots
 Wind shear 1,500' AGL from 250° at 35 knots
Greater than 6 miles
  • Scattered at 25,000' AGL
From Dec-15 @ 17:00 to Dec-15 @ 19:00
FM151700 21009KT P6SM BKN250 WS020/30040KT
Wind Visibility Clouds
210° at 9 knots
 Wind shear 2,000' AGL from 300° at 40 knots
Greater than 6 miles
  • Broken at 25,000' AGL
From Dec-15 @ 19:00 to Dec-15 @ 21:00
FM151900 25012KT P6SM SCT120 BKN250 WS020/30040KT
Wind Visibility Clouds
250° at 12 knots
 Wind shear 2,000' AGL from 300° at 40 knots
Greater than 6 miles
  • Scattered at 12,000' AGL
  • Broken at 25,000' AGL
From Dec-15 @ 21:00 to Dec-16 @ 04:00
FM152100 27010G17KT P6SM FEW250 WS020/30040KT
Wind Visibility Clouds
270° at 10 knots
 Gusting to 17 knots
 Wind shear 2,000' AGL from 300° at 40 knots
Greater than 6 miles
  • Few at 25,000' AGL
From Dec-16 @ 04:00 to Dec-16 @ 12:00
FM160400 29008KT P6SM SKC
Wind Visibility Clouds
290° at 8 knots Greater than 6 miles
  • Clear skies
KBIS 151455Z 1515/1612 13007KT P6SM SCT250 WS015/25035KT FM151700 21009KT P6SM BKN250 WS020/30040KT FM151900 25012KT P6SM SCT120 BKN250 WS020/30040KT FM152100 27010G17KT P6SM FEW250 WS020/30040KT FM160400 29008KT P6SM SKC
Issued Dec-15 @ 14:55 UTC
(2 hours ago)
Valid From Dec-15 @ 15:00 UTC
(2 hours ago)
Valid To Dec-16 @ 12:00 UTC
(in 19 hours)
Dec-15 @ 15:00 - Dec-15 @ 17:00
Wind Visibility
130° at 7 knots Greater than 6 miles
Clouds
  • Scattered at 25,000' AGL
From Dec-15 @ 17:00 - Dec-15 @ 19:00
Wind Visibility
210° at 9 knots Greater than 6 miles
Clouds
  • Broken at 25,000' AGL
From Dec-15 @ 19:00 - Dec-15 @ 21:00
Wind Visibility
250° at 12 knots Greater than 6 miles
Clouds
  • Scattered at 12,000' AGL
  • Broken at 25,000' AGL
From Dec-15 @ 21:00 - Dec-16 @ 04:00
Wind Visibility
270° at 10 knots
 Gusting to 17 knots
Greater than 6 miles
Clouds
  • Few at 25,000' AGL
From Dec-16 @ 04:00 - Dec-16 @ 12:00
Wind Visibility
290° at 8 knots Greater than 6 miles
Clouds
  • Clear skies